createdAt,value
2023-05-04T00:00:44.845Z,0.51
2023-05-04T00:01:44.830Z,0.51
2023-05-04T00:02:45.930Z,0.51
2023-05-04T00:03:46.148Z,0.50
2023-05-04T00:04:45.841Z,0.51
2023-05-04T00:05:45.893Z,0.50
2023-05-04T00:06:44.789Z,0.51
2023-05-04T00:07:45.840Z,0.51
2023-05-04T00:08:44.789Z,0.50
2023-05-04T00:09:45.779Z,0.50
2023-05-04T00:10:45.805Z,0.51
2023-05-04T00:11:45.758Z,0.50
2023-05-04T00:12:45.802Z,0.50
2023-05-04T00:13:44.732Z,0.51
2023-05-04T00:14:45.736Z,0.50
2023-05-04T00:15:44.786Z,0.50
2023-05-04T00:16:45.738Z,0.51
2023-05-04T00:17:44.741Z,0.51
2023-05-04T00:18:44.713Z,0.51
2023-05-04T00:19:45.695Z,0.50
2023-05-04T00:20:45.762Z,0.51
2023-05-04T00:21:44.808Z,0.51
2023-05-04T00:22:45.659Z,0.51
2023-05-04T00:23:44.693Z,0.51
2023-05-04T00:24:45.672Z,0.51
2023-05-04T00:25:44.663Z,0.50
2023-05-04T00:26:45.673Z,0.51
2023-05-04T00:27:45.644Z,0.51
2023-05-04T00:28:45.640Z,0.51
2023-05-04T00:29:45.652Z,0.51
2023-05-04T00:30:45.612Z,0.52
2023-05-04T00:31:44.704Z,0.52
2023-05-04T00:32:45.755Z,0.52
2023-05-04T00:33:44.640Z,0.51
2023-05-04T00:34:44.644Z,0.51
2023-05-04T00:35:45.671Z,0.52
2023-05-04T00:36:45.645Z,0.52
2023-05-04T00:37:44.673Z,0.52
2023-05-04T00:38:45.660Z,0.52
2023-05-04T00:39:45.675Z,0.52
2023-05-04T00:40:45.762Z,0.52
2023-05-04T00:41:45.712Z,0.52
2023-05-04T00:42:45.748Z,0.52
2023-05-04T00:43:44.740Z,0.52
2023-05-04T00:44:44.783Z,0.52
2023-05-04T00:45:45.792Z,0.51
2023-05-04T00:46:45.853Z,0.51
2023-05-04T00:47:45.837Z,0.51
2023-05-04T00:48:45.785Z,0.51
2023-05-04T00:49:45.802Z,0.51
2023-05-04T00:50:45.801Z,0.51
2023-05-04T00:51:44.830Z,0.51
2023-05-04T00:52:45.915Z,0.51
2023-05-04T00:53:44.835Z,0.51
2023-05-04T00:54:45.841Z,0.51
2023-05-04T00:55:45.844Z,0.51
2023-05-04T00:56:45.889Z,0.51
2023-05-04T00:57:44.946Z,0.50
2023-05-04T00:58:45.908Z,0.51
2023-05-04T00:59:44.982Z,0.51
2023-05-04T01:00:44.982Z,0.51
2023-05-04T01:01:45.913Z,0.50
2023-05-04T01:02:44.996Z,0.51
2023-05-04T01:03:45.973Z,0.51
2023-05-04T01:04:44.942Z,0.50
2023-05-04T01:05:45.072Z,0.50
2023-05-04T01:06:44.981Z,0.51
2023-05-04T01:07:46.001Z,0.51
2023-05-04T01:08:45.971Z,0.50
2023-05-04T01:09:45.012Z,0.50
2023-05-04T01:10:46.046Z,0.50
2023-05-04T01:11:46.022Z,0.50
2023-05-04T01:12:45.042Z,0.50
2023-05-04T01:13:47.025Z,0.51
2023-05-04T01:14:46.068Z,0.51
2023-05-04T01:15:45.036Z,0.50
2023-05-04T01:16:46.115Z,0.50
2023-05-04T01:17:45.155Z,0.50
2023-05-04T01:18:46.120Z,0.51
2023-05-04T01:19:45.114Z,0.51
2023-05-04T01:20:45.136Z,0.51
2023-05-04T01:21:45.174Z,0.51
2023-05-04T01:22:46.199Z,0.50
2023-05-04T01:23:46.201Z,0.51
2023-05-04T01:24:46.216Z,0.51
2023-05-04T01:25:46.268Z,0.51
2023-05-04T01:26:45.236Z,0.51
2023-05-04T01:27:46.251Z,0.51
2023-05-04T01:28:46.269Z,0.50
2023-05-04T01:29:45.300Z,0.51
2023-05-04T01:30:46.383Z,0.50
2023-05-04T01:31:45.316Z,0.50
2023-05-04T01:32:46.367Z,0.50
2023-05-04T01:33:46.376Z,0.50
2023-05-04T01:34:46.379Z,0.51
2023-05-04T01:35:45.386Z,0.51
2023-05-04T01:36:46.428Z,0.51
2023-05-04T01:37:45.405Z,0.50
2023-05-04T01:38:46.433Z,0.51
2023-05-04T01:39:46.439Z,0.50
2023-05-04T01:40:45.439Z,0.50
2023-05-04T01:41:46.484Z,0.50
2023-05-04T01:42:45.463Z,0.50
2023-05-04T01:43:46.495Z,0.50
2023-05-04T01:44:46.520Z,0.51
2023-05-04T01:45:46.539Z,0.50
2023-05-04T01:46:46.550Z,0.50
2023-05-04T01:47:46.583Z,0.50
2023-05-04T01:48:45.559Z,0.51
2023-05-04T01:49:46.631Z,0.50
2023-05-04T01:50:45.597Z,0.51
2023-05-04T01:51:45.622Z,0.51
2023-05-04T01:52:45.600Z,0.51
2023-05-04T01:53:46.624Z,0.51
2023-05-04T01:54:45.640Z,0.51
2023-05-04T01:55:45.647Z,0.50
2023-05-04T01:56:45.672Z,0.50
2023-05-04T01:57:45.724Z,0.50
2023-05-04T01:58:46.687Z,0.50
2023-05-04T01:59:45.721Z,0.51
2023-05-04T02:00:46.750Z,0.51
2023-05-04T02:01:46.699Z,0.51
2023-05-04T02:02:46.876Z,0.51
2023-05-04T02:03:45.926Z,0.51
2023-05-04T02:04:46.799Z,0.51
2023-05-04T02:05:46.795Z,0.51
2023-05-04T02:06:45.818Z,0.50
2023-05-04T02:07:45.817Z,0.51
2023-05-04T02:08:46.849Z,0.50
2023-05-04T02:09:46.868Z,0.50
2023-05-04T02:10:46.877Z,0.50
2023-05-04T02:11:45.901Z,0.50
2023-05-04T02:12:48.030Z,0.51
2023-05-04T02:13:46.957Z,0.50
2023-05-04T02:14:46.965Z,0.50
2023-05-04T02:15:47.029Z,0.50
2023-05-04T02:16:45.974Z,0.50
2023-05-04T02:17:46.020Z,0.51
2023-05-04T02:18:47.018Z,0.51
2023-05-04T02:19:47.021Z,0.50
2023-05-04T02:20:47.016Z,0.51
2023-05-04T02:21:46.074Z,0.51
2023-05-04T02:22:47.042Z,0.51
2023-05-04T02:23:46.067Z,0.51
2023-05-04T02:24:47.113Z,0.50
2023-05-04T02:25:47.106Z,0.50
2023-05-04T02:26:46.132Z,0.50
2023-05-04T02:27:46.225Z,0.51
2023-05-04T02:28:47.173Z,0.50
2023-05-04T02:29:46.197Z,0.50
2023-05-04T02:30:47.180Z,0.50
2023-05-04T02:31:46.241Z,0.50
2023-05-04T02:32:46.202Z,0.50
2023-05-04T02:33:46.211Z,0.50
2023-05-04T02:34:46.246Z,0.50
2023-05-04T02:35:47.240Z,0.50
2023-05-04T02:36:47.247Z,0.50
2023-05-04T02:37:47.282Z,0.50
2023-05-04T02:38:47.324Z,0.51
2023-05-04T02:39:46.335Z,0.50
2023-05-04T02:40:47.356Z,0.51
2023-05-04T02:41:48.783Z,0.51
2023-05-04T02:42:47.572Z,0.50
2023-05-04T02:43:47.563Z,0.50
2023-05-04T02:44:47.602Z,0.51
2023-05-04T02:45:46.721Z,0.51
2023-05-04T02:46:47.629Z,0.51
2023-05-04T02:47:46.662Z,0.50
2023-05-04T02:48:46.625Z,0.50
2023-05-04T02:49:46.715Z,0.50
2023-05-04T02:50:47.738Z,0.50
2023-05-04T02:51:46.714Z,0.50
2023-05-04T02:52:46.793Z,0.50
2023-05-04T02:53:47.786Z,0.50
2023-05-04T02:54:46.775Z,0.50
2023-05-04T02:55:47.773Z,0.51
2023-05-04T02:56:47.802Z,0.51
2023-05-04T02:57:47.813Z,0.50
2023-05-04T02:58:46.841Z,0.50
2023-05-04T02:59:47.841Z,0.50
2023-05-04T03:00:47.834Z,0.51
2023-05-04T03:01:46.952Z,0.50
2023-05-04T03:02:47.958Z,0.51
2023-05-04T03:03:46.925Z,0.50
2023-05-04T03:04:47.951Z,0.50
2023-05-04T03:05:46.947Z,0.50
2023-05-04T03:06:47.949Z,0.50
2023-05-04T03:07:46.981Z,0.50
2023-05-04T03:08:47.028Z,0.51
2023-05-04T03:09:48.079Z,0.51
2023-05-04T03:10:48.031Z,0.51
2023-05-04T03:11:48.041Z,0.51
2023-05-04T03:12:47.129Z,0.50
2023-05-04T03:13:48.060Z,0.51
2023-05-04T03:14:48.107Z,0.50
2023-05-04T03:15:48.130Z,0.51
2023-05-04T03:16:47.250Z,0.51
2023-05-04T03:17:48.245Z,0.50
2023-05-04T03:18:48.180Z,0.51
2023-05-04T03:19:48.210Z,0.51
2023-05-04T03:20:48.187Z,0.51
2023-05-04T03:21:47.347Z,0.51
2023-05-04T03:22:48.256Z,0.51
2023-05-04T03:23:50.147Z,0.51
2023-05-04T03:24:48.297Z,0.52
2023-05-04T03:25:48.264Z,0.52
2023-05-04T03:26:48.352Z,0.52
2023-05-04T03:27:48.245Z,0.51
2023-05-04T03:28:47.260Z,0.51
2023-05-04T03:29:47.245Z,0.51
2023-05-04T03:30:48.236Z,0.50
2023-05-04T03:31:48.301Z,0.50
2023-05-04T03:32:48.259Z,0.50
2023-05-04T03:33:47.309Z,0.50
2023-05-04T03:34:48.183Z,0.51
2023-05-04T03:35:48.190Z,0.51
2023-05-04T03:36:48.232Z,0.51
2023-05-04T03:37:48.193Z,0.50
2023-05-04T03:38:47.150Z,0.51
2023-05-04T03:39:48.273Z,0.51
2023-05-04T03:40:48.167Z,0.51
2023-05-04T03:41:47.176Z,0.50
2023-05-04T03:42:47.127Z,0.50
2023-05-04T03:43:47.136Z,0.51
2023-05-04T03:44:47.156Z,0.50
2023-05-04T03:45:48.136Z,0.51
2023-05-04T03:46:47.155Z,0.50
2023-05-04T03:47:48.140Z,0.51
2023-05-04T03:48:47.270Z,0.50
2023-05-04T03:49:48.175Z,0.50
2023-05-04T03:50:48.079Z,0.51
2023-05-04T03:51:47.076Z,0.50
2023-05-04T03:52:48.070Z,0.51
2023-05-04T03:53:48.055Z,0.50
2023-05-04T03:54:48.049Z,0.51
2023-05-04T03:55:48.073Z,0.51
2023-05-04T03:56:48.052Z,0.51
2023-05-04T03:57:47.055Z,0.51
2023-05-04T03:58:48.021Z,0.50
2023-05-04T03:59:47.170Z,0.50
2023-05-04T04:00:47.009Z,0.51
2023-05-04T04:01:48.000Z,0.51
2023-05-04T04:02:47.049Z,0.51
2023-05-04T04:03:48.036Z,0.50
2023-05-04T04:04:48.042Z,0.50
2023-05-04T04:05:48.237Z,0.50
2023-05-04T04:06:47.978Z,0.50
2023-05-04T04:07:46.992Z,0.51
2023-05-04T04:08:47.042Z,0.51
2023-05-04T04:09:46.942Z,0.51
2023-05-04T04:10:47.938Z,0.50
2023-05-04T04:11:47.942Z,0.51
2023-05-04T04:12:46.977Z,0.50
2023-05-04T04:13:47.913Z,0.51
2023-05-04T04:14:46.895Z,0.50
2023-05-04T04:15:47.931Z,0.51
2023-05-04T04:16:47.047Z,0.50
2023-05-04T04:17:48.026Z,0.51
2023-05-04T04:18:46.991Z,0.51
2023-05-04T04:19:48.016Z,0.51
2023-05-04T04:20:48.049Z,0.51
2023-05-04T04:21:47.099Z,0.50
2023-05-04T04:22:48.088Z,0.50
2023-05-04T04:23:47.168Z,0.50
2023-05-04T04:24:48.158Z,0.51
2023-05-04T04:25:48.171Z,0.51
2023-05-04T04:26:47.179Z,0.51
2023-05-04T04:27:48.252Z,0.50
2023-05-04T04:28:48.223Z,0.50
2023-05-04T04:29:48.272Z,0.50
2023-05-04T04:30:48.261Z,0.51
2023-05-04T04:31:47.313Z,0.50
2023-05-04T04:32:48.347Z,0.51
2023-05-04T04:33:48.340Z,0.50
2023-05-04T04:34:48.349Z,0.51
2023-05-04T04:35:48.359Z,0.50
2023-05-04T04:36:47.357Z,0.51
2023-05-04T04:37:47.387Z,0.50
2023-05-04T04:38:48.413Z,0.51
2023-05-04T04:39:48.425Z,0.51
2023-05-04T04:40:47.466Z,0.50
2023-05-04T04:41:48.473Z,0.51
2023-05-04T04:42:48.518Z,0.51
2023-05-04T04:43:47.486Z,0.51
2023-05-04T04:44:48.520Z,0.51
2023-05-04T04:45:48.615Z,0.50
2023-05-04T04:46:47.604Z,0.50
2023-05-04T04:47:48.620Z,0.50
2023-05-04T04:48:48.693Z,0.51
2023-05-04T04:49:48.630Z,0.51
2023-05-04T04:50:47.678Z,0.50
2023-05-04T04:51:48.666Z,0.51
2023-05-04T04:52:48.742Z,0.51
2023-05-04T04:53:48.728Z,0.51
2023-05-04T04:54:48.748Z,0.51
2023-05-04T04:55:47.794Z,0.51
2023-05-04T04:56:48.789Z,0.51
2023-05-04T04:57:48.812Z,0.51
2023-05-04T04:58:48.822Z,0.51
2023-05-04T04:59:47.869Z,0.50
2023-05-04T05:00:49.004Z,0.51
2023-05-04T05:01:47.889Z,0.51
2023-05-04T05:02:48.018Z,0.51
2023-05-04T05:03:48.943Z,0.52
2023-05-04T05:04:47.996Z,0.51
2023-05-04T05:05:49.203Z,0.51
2023-05-04T05:06:49.003Z,0.50
2023-05-04T05:07:48.977Z,0.51
2023-05-04T05:08:48.998Z,0.51
2023-05-04T05:09:48.048Z,0.51
2023-05-04T05:10:48.084Z,0.51
2023-05-04T05:11:49.096Z,0.51
2023-05-04T05:12:49.130Z,0.51
2023-05-04T05:13:49.107Z,0.51
2023-05-04T05:14:48.101Z,0.51
2023-05-04T05:15:48.165Z,0.51
2023-05-04T05:16:49.188Z,0.51
2023-05-04T05:17:49.280Z,0.51
2023-05-04T05:18:48.224Z,0.52
2023-05-04T05:19:49.227Z,0.52
2023-05-04T05:20:49.246Z,0.52
2023-05-04T05:21:48.253Z,0.51
2023-05-04T05:22:48.235Z,0.52
2023-05-04T05:23:48.266Z,0.52
2023-05-04T05:24:49.371Z,0.53
2023-05-04T05:25:48.477Z,0.52
2023-05-04T05:26:48.402Z,0.54
2023-05-04T05:27:49.916Z,0.54
2023-05-04T05:28:49.710Z,0.55
2023-05-04T05:29:48.556Z,0.55
2023-05-04T05:30:49.664Z,0.55
2023-05-04T05:31:49.696Z,0.56
2023-05-04T05:32:49.764Z,0.56
2023-05-04T05:33:48.753Z,0.59
2023-05-04T05:34:48.894Z,0.61
2023-05-04T05:35:49.873Z,0.64
2023-05-04T05:36:49.866Z,0.68
2023-05-04T05:37:48.874Z,0.68
2023-05-04T05:38:50.375Z,0.67
2023-05-04T05:39:50.022Z,0.67
2023-05-04T05:40:49.006Z,0.67
2023-05-04T05:41:50.078Z,0.68
2023-05-04T05:42:48.982Z,0.70
2023-05-04T05:43:49.059Z,0.71
2023-05-04T05:44:49.173Z,0.72
2023-05-04T05:45:50.156Z,0.72
2023-05-04T05:46:50.128Z,0.74
2023-05-04T05:47:50.232Z,0.73
2023-05-04T05:48:50.277Z,0.69
2023-05-04T05:49:50.600Z,0.50
2023-05-04T05:50:50.512Z,0.49
2023-05-04T05:51:50.573Z,0.50
2023-05-04T05:52:50.726Z,0.57
2023-05-04T05:53:50.412Z,0.60
2023-05-04T05:54:50.408Z,0.54
2023-05-04T05:55:49.430Z,0.51
2023-05-04T05:56:50.504Z,0.53
2023-05-04T05:57:49.703Z,0.50
2023-05-04T05:58:50.556Z,0.51
2023-05-04T05:59:50.582Z,0.52
2023-05-04T06:00:50.687Z,0.50
2023-05-04T06:01:50.648Z,0.50
2023-05-04T06:02:49.765Z,0.51
2023-05-04T06:03:50.029Z,0.51
2023-05-04T06:04:49.864Z,0.50
2023-05-04T06:05:49.795Z,0.51
2023-05-04T06:06:50.886Z,0.51
2023-05-04T06:07:49.840Z,0.51
2023-05-04T06:08:50.866Z,0.50
2023-05-04T06:09:49.885Z,0.51
2023-05-04T06:10:51.005Z,0.51
2023-05-04T06:11:51.899Z,0.50
2023-05-04T06:12:51.000Z,0.50
2023-05-04T06:13:50.012Z,0.50
2023-05-04T06:14:51.004Z,0.50
2023-05-04T06:15:49.941Z,0.50
2023-05-04T06:16:51.072Z,0.51
2023-05-04T06:17:51.210Z,0.51
2023-05-04T06:18:50.983Z,0.55
2023-05-04T06:19:50.988Z,0.58
2023-05-04T06:20:50.902Z,0.55
2023-05-04T06:21:49.978Z,0.56
2023-05-04T06:22:50.958Z,0.54
2023-05-04T06:23:50.910Z,0.56
2023-05-04T06:24:49.944Z,0.55
2023-05-04T06:25:50.028Z,0.58
2023-05-04T06:26:51.010Z,0.58
2023-05-04T06:27:50.861Z,0.58
2023-05-04T06:28:50.847Z,0.62
2023-05-04T06:29:50.883Z,0.64
2023-05-04T06:30:50.910Z,0.62
2023-05-04T06:31:49.950Z,0.64
2023-05-04T06:32:50.943Z,0.66
2023-05-04T06:33:50.873Z,0.68
2023-05-04T06:34:50.967Z,0.65
2023-05-04T06:35:49.962Z,0.65
2023-05-04T06:36:50.850Z,0.67
2023-05-04T06:38:49.807Z,0.68
2023-05-04T06:39:50.822Z,0.69
2023-05-04T06:40:50.853Z,0.66
2023-05-04T06:41:49.803Z,0.67
2023-05-04T06:42:49.781Z,0.65
2023-05-04T06:43:50.793Z,0.61
2023-05-04T06:44:49.757Z,0.64
2023-05-04T06:45:50.841Z,0.63
2023-05-04T06:46:49.739Z,0.64
2023-05-04T06:47:49.756Z,0.62
2023-05-04T06:48:49.793Z,0.63
2023-05-04T06:49:49.758Z,0.66
2023-05-04T06:50:50.697Z,0.64
2023-05-04T06:51:51.229Z,0.61
2023-05-04T06:52:50.807Z,0.59
2023-05-04T06:53:50.800Z,0.60
2023-05-04T06:54:50.822Z,0.63
2023-05-04T06:55:49.947Z,0.61
2023-05-04T06:56:51.230Z,0.64
2023-05-04T06:57:49.941Z,0.67
2023-05-04T06:58:50.973Z,0.68
2023-05-04T06:59:51.010Z,0.70
2023-05-04T07:00:51.062Z,0.71
2023-05-04T07:01:50.172Z,0.72
2023-05-04T07:02:50.191Z,0.73
2023-05-04T07:03:51.155Z,0.72
2023-05-04T07:04:50.145Z,0.73
2023-05-04T07:05:51.359Z,0.74
2023-05-04T07:06:51.188Z,0.78
2023-05-04T07:07:51.377Z,0.76
2023-05-04T07:08:51.242Z,0.78
2023-05-04T07:09:51.306Z,0.77
2023-05-04T07:10:50.377Z,0.79
2023-05-04T07:11:51.366Z,0.82
2023-05-04T07:12:51.423Z,0.83
2023-05-04T07:13:51.443Z,0.83
2023-05-04T07:14:50.441Z,0.85
2023-05-04T07:15:50.476Z,0.86
2023-05-04T07:16:50.462Z,0.89
2023-05-04T07:17:51.516Z,0.90
2023-05-04T07:18:51.534Z,0.90
2023-05-04T07:19:50.496Z,0.90
2023-05-04T07:20:50.481Z,0.93
2023-05-04T07:21:50.533Z,0.93
2023-05-04T07:22:51.592Z,0.97
2023-05-04T07:23:50.627Z,0.98
2023-05-04T07:24:50.688Z,0.96
2023-05-04T07:25:53.164Z,0.98
2023-05-04T07:26:51.824Z,1.02
2023-05-04T07:27:51.697Z,1.04
2023-05-04T07:28:50.757Z,1.03
2023-05-04T07:29:50.734Z,1.05
2023-05-04T07:30:50.672Z,1.06
2023-05-04T07:31:51.944Z,1.07
2023-05-04T07:32:51.772Z,1.10
2023-05-04T07:33:51.753Z,1.10
2023-05-04T07:34:50.719Z,1.11
2023-05-04T07:35:51.646Z,1.12
2023-05-04T07:36:50.649Z,1.14
2023-05-04T07:37:50.656Z,1.15
2023-05-04T07:38:51.656Z,1.16
2023-05-04T07:39:51.693Z,1.17
2023-05-04T07:40:51.684Z,1.18
2023-05-04T07:41:51.660Z,1.21
2023-05-04T07:42:51.618Z,1.22
2023-05-04T07:43:51.624Z,1.22
2023-05-04T07:44:50.609Z,1.24
2023-05-04T07:45:50.758Z,1.27
2023-05-04T07:46:51.676Z,1.28
2023-05-04T07:47:52.624Z,1.29
2023-05-04T07:48:51.714Z,1.41
2023-05-04T07:49:50.841Z,1.42
2023-05-04T07:50:51.700Z,1.45
2023-05-04T07:51:52.301Z,1.44
2023-05-04T07:52:50.732Z,1.44
2023-05-04T07:53:50.774Z,1.45
2023-05-04T07:54:50.776Z,1.48
2023-05-04T07:55:51.762Z,1.49
2023-05-04T07:56:51.806Z,1.51
2023-05-04T07:57:51.833Z,1.53
2023-05-04T07:58:51.855Z,1.53
2023-05-04T07:59:50.850Z,1.55
2023-05-04T08:00:52.056Z,1.54
2023-05-04T08:01:50.986Z,1.54
2023-05-04T08:02:50.992Z,1.54
2023-05-04T08:03:50.969Z,1.54
2023-05-04T08:04:50.994Z,1.54
2023-05-04T08:05:52.038Z,1.55
2023-05-04T08:06:52.102Z,1.55
2023-05-04T08:07:51.143Z,1.55
2023-05-04T08:08:52.893Z,1.54
2023-05-04T08:09:52.137Z,1.53
2023-05-04T08:10:52.140Z,1.52
2023-05-04T08:11:52.194Z,1.51
2023-05-04T08:12:51.388Z,1.52
2023-05-04T08:13:52.567Z,1.49
2023-05-04T08:14:52.323Z,1.50
2023-05-04T08:15:51.349Z,1.51
2023-05-04T08:16:52.363Z,1.51
2023-05-04T08:17:51.542Z,1.51
2023-05-04T08:18:52.395Z,1.52
2023-05-04T08:19:52.442Z,1.53
2023-05-04T08:20:51.458Z,1.52
2023-05-04T08:21:52.617Z,1.52
2023-05-04T08:22:51.541Z,1.51
2023-05-04T08:23:51.605Z,1.51
2023-05-04T08:24:52.619Z,1.52
2023-05-04T08:25:52.666Z,1.53
2023-05-04T08:27:06.650Z,1.50
2023-05-04T08:27:52.684Z,1.51
2023-05-04T08:28:51.655Z,1.51
2023-05-04T08:29:52.655Z,1.52
2023-05-04T08:30:52.636Z,1.52
2023-05-04T08:31:51.680Z,1.51
2023-05-04T08:32:52.673Z,1.52
2023-05-04T08:33:51.620Z,1.50
2023-05-04T08:34:52.615Z,1.51
2023-05-04T08:35:52.659Z,1.50
2023-05-04T08:36:52.627Z,1.50
2023-05-04T08:37:51.654Z,1.49
2023-05-04T08:38:52.561Z,1.49
2023-05-04T08:39:52.569Z,1.49
2023-05-04T08:40:51.661Z,1.50
2023-05-04T08:41:51.713Z,1.50
2023-05-04T08:42:52.583Z,1.50
2023-05-04T08:43:52.546Z,1.80
2023-05-04T08:44:52.572Z,1.59
2023-05-04T08:45:51.584Z,1.61
2023-05-04T08:46:52.637Z,1.64
2023-05-04T08:47:52.545Z,1.71
2023-05-04T08:48:58.525Z,1.68
2023-05-04T08:49:52.497Z,1.68
2023-05-04T08:50:52.511Z,1.70
2023-05-04T08:51:52.495Z,1.76
2023-05-04T08:52:51.492Z,2.05
2023-05-04T08:53:52.547Z,2.60
